Aviation Digital Data Service (ADDS)

Output produced by METARs form (1213 UTC 25 June 2019)
found at http://www.aviationweather.gov/metar/data/
 
METAR text: WBKS 251200Z VRB02KT 9999 FEW015 BKN290 28/25 Q1010 RETS
Conditions at: WBKS (SANDAKAN/KALIMAN, MY) observed 1200 UTC 25 June 2019
Temperature: 28.0°C (82°F)
Dewpoint: 25.0°C (77°F) [RH = 84%]
Pressure (altimeter): 29.82 inches Hg (1010.0 mb)
Winds: variable direction winds at 2 MPH (2 knots; 1.0 m/s)
Visibility: 6 or more miles (10+ km)
Ceiling: 29000 feet AGL
Clouds: few clouds at 1500 feet AGL
broken clouds at 29000 feet AGL
Weather: no significant weather observed at this time

METAR text: WBKS 251100Z 00000KT 9999 TS FEW015 FEW016CB BKN290 29/26 Q1010
Conditions at: WBKS (SANDAKAN/KALIMAN, MY) observed 1100 UTC 25 June 2019
Temperature: 29.0°C (84°F)
Dewpoint: 26.0°C (79°F) [RH = 84%]
Pressure (altimeter): 29.82 inches Hg (1010.0 mb)
Winds: calm
Visibility: 6 or more miles (10+ km)
Ceiling: 29000 feet AGL
Clouds: few clouds at 1500 feet AGL
few clouds at 1600 feet AGL
broken clouds at 29000 feet AGL
Weather: TS  (thunderstorm)

METAR text: WBKS 251000Z VRB03KT 9999 SCT015 FEW016CB BKN290 29/26 Q1009
Conditions at: WBKS (SANDAKAN/KALIMAN, MY) observed 1000 UTC 25 June 2019
Temperature: 29.0°C (84°F)
Dewpoint: 26.0°C (79°F) [RH = 84%]
Pressure (altimeter): 29.79 inches Hg (1009.0 mb)
Winds: variable direction winds at 3 MPH (3 knots; 1.5 m/s)
Visibility: 6 or more miles (10+ km)
Ceiling: 29000 feet AGL
Clouds: scattered clouds at 1500 feet AGL
few clouds at 1600 feet AGL
broken clouds at 29000 feet AGL
Weather: no significant weather observed at this time

METAR text: WBKS 250900Z 29004KT 260V320 9999 SCT015 BKN290 31/26 Q1008
Conditions at: WBKS (SANDAKAN/KALIMAN, MY) observed 0900 UTC 25 June 2019
Temperature: 31.0°C (88°F)
Dewpoint: 26.0°C (79°F) [RH = 75%]
Pressure (altimeter): 29.76 inches Hg (1008.0 mb)
Winds: from the WNW (290 degrees) at 5 MPH (4 knots; 2.1 m/s)
Visibility: 6 or more miles (10+ km)
Ceiling: 29000 feet AGL
Clouds: scattered clouds at 1500 feet AGL
broken clouds at 29000 feet AGL
Weather: no significant weather observed at this time

METAR text: WBKS 250800Z 02006KT 350V050 9999 SCT015 FEW016CB BKN290 31/27 Q1008
Conditions at: WBKS (SANDAKAN/KALIMAN, MY) observed 0800 UTC 25 June 2019
Temperature: 31.0°C (88°F)
Dewpoint: 27.0°C (81°F) [RH = 79%]
Pressure (altimeter): 29.76 inches Hg (1008.0 mb)
Winds: from the NNE (20 degrees) at 7 MPH (6 knots; 3.1 m/s)
Visibility: 6 or more miles (10+ km)
Ceiling: 29000 feet AGL
Clouds: scattered clouds at 1500 feet AGL
few clouds at 1600 feet AGL
broken clouds at 29000 feet AGL
Weather: no significant weather observed at this time

METAR text: WBKS 250700Z 03005KT 340V070 9999 SCT015 FEW016CB BKN300 31/27 Q1008
Conditions at: WBKS (SANDAKAN/KALIMAN, MY) observed 0700 UTC 25 June 2019
Temperature: 31.0°C (88°F)
Dewpoint: 27.0°C (81°F) [RH = 79%]
Pressure (altimeter): 29.76 inches Hg (1008.0 mb)
Winds: from the NNE (30 degrees) at 6 MPH (5 knots; 2.6 m/s)
Visibility: 6 or more miles (10+ km)
Ceiling: 30000 feet AGL
Clouds: scattered clouds at 1500 feet AGL
few clouds at 1600 feet AGL
broken clouds at 30000 feet AGL
Weather: no significant weather observed at this time

METAR text: WBKS 250600Z VRB03KT 9999 SCT015 FEW016CB BKN300 32/25 Q1009
Conditions at: WBKS (SANDAKAN/KALIMAN, MY) observed 0600 UTC 25 June 2019
Temperature: 32.0°C (90°F)
Dewpoint: 25.0°C (77°F) [RH = 67%]
Pressure (altimeter): 29.79 inches Hg (1009.0 mb)
Winds: variable direction winds at 3 MPH (3 knots; 1.5 m/s)
Visibility: 6 or more miles (10+ km)
Ceiling: 30000 feet AGL
Clouds: scattered clouds at 1500 feet AGL
few clouds at 1600 feet AGL
broken clouds at 30000 feet AGL
Weather: no significant weather observed at this time

METAR text: WBKS 250500Z 04007KT 360V070 9999 SCT016 BKN300 31/26 Q1010
Conditions at: WBKS (SANDAKAN/KALIMAN, MY) observed 0500 UTC 25 June 2019
Temperature: 31.0°C (88°F)
Dewpoint: 26.0°C (79°F) [RH = 75%]
Pressure (altimeter): 29.82 inches Hg (1010.0 mb)
Winds: from the NE (40 degrees) at 8 MPH (7 knots; 3.6 m/s)
Visibility: 6 or more miles (10+ km)
Ceiling: 30000 feet AGL
Clouds: scattered clouds at 1600 feet AGL
broken clouds at 30000 feet AGL
Weather: no significant weather observed at this time

METAR text: WBKS 250400Z 04006KT 330V060 9999 SCT016 BKN300 31/26 Q1011
Conditions at: WBKS (SANDAKAN/KALIMAN, MY) observed 0400 UTC 25 June 2019
Temperature: 31.0°C (88°F)
Dewpoint: 26.0°C (79°F) [RH = 75%]
Pressure (altimeter): 29.85 inches Hg (1011.0 mb)
Winds: from the NE (40 degrees) at 7 MPH (6 knots; 3.1 m/s)
Visibility: 6 or more miles (10+ km)
Ceiling: 30000 feet AGL
Clouds: scattered clouds at 1600 feet AGL
broken clouds at 30000 feet AGL
Weather: no significant weather observed at this time

METAR text: WBKS 250300Z VRB02KT 9999 SCT016 BKN300 32/26 Q1011
Conditions at: WBKS (SANDAKAN/KALIMAN, MY) observed 0300 UTC 25 June 2019
Temperature: 32.0°C (90°F)
Dewpoint: 26.0°C (79°F) [RH = 71%]
Pressure (altimeter): 29.85 inches Hg (1011.0 mb)
Winds: variable direction winds at 2 MPH (2 knots; 1.0 m/s)
Visibility: 6 or more miles (10+ km)
Ceiling: 30000 feet AGL
Clouds: scattered clouds at 1600 feet AGL
broken clouds at 30000 feet AGL
Weather: no significant weather observed at this time

METAR text: WBKS 250200Z 25004KT 200V300 9999 SCT016 BKN300 30/25 Q1012
Conditions at: WBKS (SANDAKAN/KALIMAN, MY) observed 0200 UTC 25 June 2019
Temperature: 30.0°C (86°F)
Dewpoint: 25.0°C (77°F) [RH = 75%]
Pressure (altimeter): 29.88 inches Hg (1012.0 mb)
Winds: from the WSW (250 degrees) at 5 MPH (4 knots; 2.1 m/s)
Visibility: 6 or more miles (10+ km)
Ceiling: 30000 feet AGL
Clouds: scattered clouds at 1600 feet AGL
broken clouds at 30000 feet AGL
Weather: no significant weather observed at this time

METAR text: WBKS 250100Z 19004KT 110V260 9999 SCT016 BKN300 30/25 Q1011
Conditions at: WBKS (SANDAKAN/KALIMAN, MY) observed 0100 UTC 25 June 2019
Temperature: 30.0°C (86°F)
Dewpoint: 25.0°C (77°F) [RH = 75%]
Pressure (altimeter): 29.85 inches Hg (1011.0 mb)
Winds: from the S (190 degrees) at 5 MPH (4 knots; 2.1 m/s)
Visibility: 6 or more miles (10+ km)
Ceiling: 30000 feet AGL
Clouds: scattered clouds at 1600 feet AGL
broken clouds at 30000 feet AGL
Weather: no significant weather observed at this time

METAR text: WBKS 250000Z VRB03KT 9999 FEW016 BKN290 28/25 Q1011
Conditions at: WBKS (SANDAKAN/KALIMAN, MY) observed 0000 UTC 25 June 2019
Temperature: 28.0°C (82°F)
Dewpoint: 25.0°C (77°F) [RH = 84%]
Pressure (altimeter): 29.85 inches Hg (1011.0 mb)
Winds: variable direction winds at 3 MPH (3 knots; 1.5 m/s)
Visibility: 6 or more miles (10+ km)
Ceiling: 29000 feet AGL
Clouds: few clouds at 1600 feet AGL
broken clouds at 29000 feet AGL
Weather: no significant weather observed at this time

METAR text: WBKS 242300Z 00000KT 9999 FEW016 BKN280 27/25 Q1011
Conditions at: WBKS (SANDAKAN/KALIMAN, MY) observed 2300 UTC 24 June 2019
Temperature: 27.0°C (81°F)
Dewpoint: 25.0°C (77°F) [RH = 89%]
Pressure (altimeter): 29.85 inches Hg (1011.0 mb)
Winds: calm
Visibility: 6 or more miles (10+ km)
Ceiling: 28000 feet AGL
Clouds: few clouds at 1600 feet AGL
broken clouds at 28000 feet AGL
Weather: no significant weather observed at this time

METAR text: WBKS 242200Z 00000KT 9999 FEW016 BKN280 25/24 Q1010
Conditions at: WBKS (SANDAKAN/KALIMAN, MY) observed 2200 UTC 24 June 2019
Temperature: 25.0°C (77°F)
Dewpoint: 24.0°C (75°F) [RH = 94%]
Pressure (altimeter): 29.82 inches Hg (1010.0 mb)
Winds: calm
Visibility: 6 or more miles (10+ km)
Ceiling: 28000 feet AGL
Clouds: few clouds at 1600 feet AGL
broken clouds at 28000 feet AGL
Weather: no significant weather observed at this time

METAR text: WBKS 242100Z 00000KT 9999 FEW016 BKN270 25/25 Q1010
Conditions at: WBKS (SANDAKAN/KALIMAN, MY) observed 2100 UTC 24 June 2019
Temperature: 25.0°C (77°F)
Dewpoint: 25.0°C (77°F) [RH = 100%]
Pressure (altimeter): 29.82 inches Hg (1010.0 mb)
Winds: calm
Visibility: 6 or more miles (10+ km)
Ceiling: 27000 feet AGL
Clouds: few clouds at 1600 feet AGL
broken clouds at 27000 feet AGL
Weather: no significant weather observed at this time

METAR text: WBKS 242000Z 00000KT 9999 FEW016 BKN270 26/25 Q1010
Conditions at: WBKS (SANDAKAN/KALIMAN, MY) observed 2000 UTC 24 June 2019
Temperature: 26.0°C (79°F)
Dewpoint: 25.0°C (77°F) [RH = 94%]
Pressure (altimeter): 29.82 inches Hg (1010.0 mb)
Winds: calm
Visibility: 6 or more miles (10+ km)
Ceiling: 27000 feet AGL
Clouds: few clouds at 1600 feet AGL
broken clouds at 27000 feet AGL
Weather: no significant weather observed at this time

METAR text: WBKS 241900Z VRB02KT 9999 FEW016 BKN270 26/24 Q1010
Conditions at: WBKS (SANDAKAN/KALIMAN, MY) observed 1900 UTC 24 June 2019
Temperature: 26.0°C (79°F)
Dewpoint: 24.0°C (75°F) [RH = 89%]
Pressure (altimeter): 29.82 inches Hg (1010.0 mb)
Winds: variable direction winds at 2 MPH (2 knots; 1.0 m/s)
Visibility: 6 or more miles (10+ km)
Ceiling: 27000 feet AGL
Clouds: few clouds at 1600 feet AGL
broken clouds at 27000 feet AGL
Weather: no significant weather observed at this time

METAR text: WBKS 241800Z 00000KT 9999 FEW016 BKN270 26/24 Q1010
Conditions at: WBKS (SANDAKAN/KALIMAN, MY) observed 1800 UTC 24 June 2019
Temperature: 26.0°C (79°F)
Dewpoint: 24.0°C (75°F) [RH = 89%]
Pressure (altimeter): 29.82 inches Hg (1010.0 mb)
Winds: calm
Visibility: 6 or more miles (10+ km)
Ceiling: 27000 feet AGL
Clouds: few clouds at 1600 feet AGL
broken clouds at 27000 feet AGL
Weather: no significant weather observed at this time

METAR text: WBKS 241700Z 00000KT 9999 FEW016 BKN270 26/24 Q1011
Conditions at: WBKS (SANDAKAN/KALIMAN, MY) observed 1700 UTC 24 June 2019
Temperature: 26.0°C (79°F)
Dewpoint: 24.0°C (75°F) [RH = 89%]
Pressure (altimeter): 29.85 inches Hg (1011.0 mb)
Winds: calm
Visibility: 6 or more miles (10+ km)
Ceiling: 27000 feet AGL
Clouds: few clouds at 1600 feet AGL
broken clouds at 27000 feet AGL
Weather: no significant weather observed at this time

METAR text: WBKS 241600Z 00000KT 9999 FEW016 BKN270 26/25 Q1011
Conditions at: WBKS (SANDAKAN/KALIMAN, MY) observed 1600 UTC 24 June 2019
Temperature: 26.0°C (79°F)
Dewpoint: 25.0°C (77°F) [RH = 94%]
Pressure (altimeter): 29.85 inches Hg (1011.0 mb)
Winds: calm
Visibility: 6 or more miles (10+ km)
Ceiling: 27000 feet AGL
Clouds: few clouds at 1600 feet AGL
broken clouds at 27000 feet AGL
Weather: no significant weather observed at this time

METAR text: WBKS 241500Z 00000KT 9999 FEW016 BKN270 26/25 Q1011
Conditions at: WBKS (SANDAKAN/KALIMAN, MY) observed 1500 UTC 24 June 2019
Temperature: 26.0°C (79°F)
Dewpoint: 25.0°C (77°F) [RH = 94%]
Pressure (altimeter): 29.85 inches Hg (1011.0 mb)
Winds: calm
Visibility: 6 or more miles (10+ km)
Ceiling: 27000 feet AGL
Clouds: few clouds at 1600 feet AGL
broken clouds at 27000 feet AGL
Weather: no significant weather observed at this time

METAR text: WBKS 241400Z 00000KT 9999 FEW016 BKN270 27/25 Q1011
Conditions at: WBKS (SANDAKAN/KALIMAN, MY) observed 1400 UTC 24 June 2019
Temperature: 27.0°C (81°F)
Dewpoint: 25.0°C (77°F) [RH = 89%]
Pressure (altimeter): 29.85 inches Hg (1011.0 mb)
Winds: calm
Visibility: 6 or more miles (10+ km)
Ceiling: 27000 feet AGL
Clouds: few clouds at 1600 feet AGL
broken clouds at 27000 feet AGL
Weather: no significant weather observed at this time

METAR text: WBKS 241300Z 00000KT 9999 FEW016 BKN270 27/25 Q1011
Conditions at: WBKS (SANDAKAN/KALIMAN, MY) observed 1300 UTC 24 June 2019
Temperature: 27.0°C (81°F)
Dewpoint: 25.0°C (77°F) [RH = 89%]
Pressure (altimeter): 29.85 inches Hg (1011.0 mb)
Winds: calm
Visibility: 6 or more miles (10+ km)
Ceiling: 27000 feet AGL
Clouds: few clouds at 1600 feet AGL
broken clouds at 27000 feet AGL
Weather: no significant weather observed at this time

METAR text: WBKS 241200Z 00000KT 9999 FEW016 BKN270 28/25 Q1011
Conditions at: WBKS (SANDAKAN/KALIMAN, MY) observed 1200 UTC 24 June 2019
Temperature: 28.0°C (82°F)
Dewpoint: 25.0°C (77°F) [RH = 84%]
Pressure (altimeter): 29.85 inches Hg (1011.0 mb)
Winds: calm
Visibility: 6 or more miles (10+ km)
Ceiling: 27000 feet AGL
Clouds: few clouds at 1600 feet AGL
broken clouds at 27000 feet AGL
Weather: no significant weather observed at this time

METAR text: WBKS 241100Z 00000KT 9999 FEW016 SCT140 BKN270 28/25 Q1010
Conditions at: WBKS (SANDAKAN/KALIMAN, MY) observed 1100 UTC 24 June 2019
Temperature: 28.0°C (82°F)
Dewpoint: 25.0°C (77°F) [RH = 84%]
Pressure (altimeter): 29.82 inches Hg (1010.0 mb)
Winds: calm
Visibility: 6 or more miles (10+ km)
Ceiling: 27000 feet AGL
Clouds: few clouds at 1600 feet AGL
scattered clouds at 14000 feet AGL
broken clouds at 27000 feet AGL
Weather: no significant weather observed at this time

METAR text: WBKS 241000Z VRB02KT 9999 FEW016 SCT140 BKN270 29/25 Q1009
Conditions at: WBKS (SANDAKAN/KALIMAN, MY) observed 1000 UTC 24 June 2019
Temperature: 29.0°C (84°F)
Dewpoint: 25.0°C (77°F) [RH = 79%]
Pressure (altimeter): 29.79 inches Hg (1009.0 mb)
Winds: variable direction winds at 2 MPH (2 knots; 1.0 m/s)
Visibility: 6 or more miles (10+ km)
Ceiling: 27000 feet AGL
Clouds: few clouds at 1600 feet AGL
scattered clouds at 14000 feet AGL
broken clouds at 27000 feet AGL
Weather: no significant weather observed at this time

METAR text: WBKS 240900Z VRB01KT 9999 FEW016 SCT140 BKN270 30/25 Q1009
Conditions at: WBKS (SANDAKAN/KALIMAN, MY) observed 0900 UTC 24 June 2019
Temperature: 30.0°C (86°F)
Dewpoint: 25.0°C (77°F) [RH = 75%]
Pressure (altimeter): 29.79 inches Hg (1009.0 mb)
Winds: variable direction winds at 1 MPH (1 knots; 0.5 m/s)
Visibility: 6 or more miles (10+ km)
Ceiling: 27000 feet AGL
Clouds: few clouds at 1600 feet AGL
scattered clouds at 14000 feet AGL
broken clouds at 27000 feet AGL
Weather: no significant weather observed at this time

METAR text: WBKS 240800Z VRB02KT 9999 FEW016 BKN270 30/25 Q1008
Conditions at: WBKS (SANDAKAN/KALIMAN, MY) observed 0800 UTC 24 June 2019
Temperature: 30.0°C (86°F)
Dewpoint: 25.0°C (77°F) [RH = 75%]
Pressure (altimeter): 29.76 inches Hg (1008.0 mb)
Winds: variable direction winds at 2 MPH (2 knots; 1.0 m/s)
Visibility: 6 or more miles (10+ km)
Ceiling: 27000 feet AGL
Clouds: few clouds at 1600 feet AGL
broken clouds at 27000 feet AGL
Weather: no significant weather observed at this time

METAR text: WBKS 240700Z 17005KT 100V240 9999 FEW016 BKN270 30/24 Q1008
Conditions at: WBKS (SANDAKAN/KALIMAN, MY) observed 0700 UTC 24 June 2019
Temperature: 30.0°C (86°F)
Dewpoint: 24.0°C (75°F) [RH = 70%]
Pressure (altimeter): 29.76 inches Hg (1008.0 mb)
Winds: from the S (170 degrees) at 6 MPH (5 knots; 2.6 m/s)
Visibility: 6 or more miles (10+ km)
Ceiling: 27000 feet AGL
Clouds: few clouds at 1600 feet AGL
broken clouds at 27000 feet AGL
Weather: no significant weather observed at this time

METAR text: WBKS 240600Z 19005KT 100V260 9999 FEW016 SCT140 BKN260 30/24 Q1008
Conditions at: WBKS (SANDAKAN/KALIMAN, MY) observed 0600 UTC 24 June 2019
Temperature: 30.0°C (86°F)
Dewpoint: 24.0°C (75°F) [RH = 70%]
Pressure (altimeter): 29.76 inches Hg (1008.0 mb)
Winds: from the S (190 degrees) at 6 MPH (5 knots; 2.6 m/s)
Visibility: 6 or more miles (10+ km)
Ceiling: 26000 feet AGL
Clouds: few clouds at 1600 feet AGL
scattered clouds at 14000 feet AGL
broken clouds at 26000 feet AGL
Weather: no significant weather observed at this time

METAR text: WBKS 240500Z 12004KT 040V160 9999 FEW016 SCT140 BKN260 29/24 Q1009
Conditions at: WBKS (SANDAKAN/KALIMAN, MY) observed 0500 UTC 24 June 2019
Temperature: 29.0°C (84°F)
Dewpoint: 24.0°C (75°F) [RH = 74%]
Pressure (altimeter): 29.79 inches Hg (1009.0 mb)
Winds: from the ESE (120 degrees) at 5 MPH (4 knots; 2.1 m/s)
Visibility: 6 or more miles (10+ km)
Ceiling: 26000 feet AGL
Clouds: few clouds at 1600 feet AGL
scattered clouds at 14000 feet AGL
broken clouds at 26000 feet AGL
Weather: no significant weather observed at this time

METAR text: WBKS 240400Z VRB03KT 9999 FEW016 SCT140 BKN260 29/25 Q1011
Conditions at: WBKS (SANDAKAN/KALIMAN, MY) observed 0400 UTC 24 June 2019
Temperature: 29.0°C (84°F)
Dewpoint: 25.0°C (77°F) [RH = 79%]
Pressure (altimeter): 29.85 inches Hg (1011.0 mb)
Winds: variable direction winds at 3 MPH (3 knots; 1.5 m/s)
Visibility: 6 or more miles (10+ km)
Ceiling: 26000 feet AGL
Clouds: few clouds at 1600 feet AGL
scattered clouds at 14000 feet AGL
broken clouds at 26000 feet AGL
Weather: no significant weather observed at this time

METAR text: WBKS 240300Z VRB03KT 9999 SCT016 SCT140 BKN260 28/24 Q1012
Conditions at: WBKS (SANDAKAN/KALIMAN, MY) observed 0300 UTC 24 June 2019
Temperature: 28.0°C (82°F)
Dewpoint: 24.0°C (75°F) [RH = 79%]
Pressure (altimeter): 29.88 inches Hg (1012.0 mb)
Winds: variable direction winds at 3 MPH (3 knots; 1.5 m/s)
Visibility: 6 or more miles (10+ km)
Ceiling: 26000 feet AGL
Clouds: scattered clouds at 1600 feet AGL
scattered clouds at 14000 feet AGL
broken clouds at 26000 feet AGL
Weather: no significant weather observed at this time

METAR text: WBKS 240200Z 13003KT 090V150 9999 FEW016 SCT040 BKN140 27/24 Q1012
Conditions at: WBKS (SANDAKAN/KALIMAN, MY) observed 0200 UTC 24 June 2019
Temperature: 27.0°C (81°F)
Dewpoint: 24.0°C (75°F) [RH = 84%]
Pressure (altimeter): 29.88 inches Hg (1012.0 mb)
Winds: from the SE (130 degrees) at 3 MPH (3 knots; 1.5 m/s)
Visibility: 6 or more miles (10+ km)
Ceiling: 14000 feet AGL
Clouds: few clouds at 1600 feet AGL
scattered clouds at 4000 feet AGL
broken clouds at 14000 feet AGL
Weather: no significant weather observed at this time

METAR text: WBKS 240100Z 00000KT 9999 FEW016 SCT040 BKN140 26/24 Q1012
Conditions at: WBKS (SANDAKAN/KALIMAN, MY) observed 0100 UTC 24 June 2019
Temperature: 26.0°C (79°F)
Dewpoint: 24.0°C (75°F) [RH = 89%]
Pressure (altimeter): 29.88 inches Hg (1012.0 mb)
Winds: calm
Visibility: 6 or more miles (10+ km)
Ceiling: 14000 feet AGL
Clouds: few clouds at 1600 feet AGL
scattered clouds at 4000 feet AGL
broken clouds at 14000 feet AGL
Weather: no significant weather observed at this time

Forecast for: WBKS (SANDAKAN/KALIMAN, MY)
Text: TAF WBKS 251100Z 2512/2612 14005KT 9999 FEW016
Forecast period: 1200 UTC 25 June 2019 to 1200 UTC 26 June 2019
Forecast type: FROM: standard forecast or significant change
Winds: from the SE (140 degrees) at 6 MPH (5 knots; 2.6 m/s)
Visibility: 6 or more miles 10+ km)
Ceiling: at least 12,000 feet AGL
Clouds: few clouds at 1600 feet AGL
Weather: no significant weather forecast for this period
Text: TEMPO 2512/2516 5000 TSRA FEW010 FEW016CB SCT040
Forecast period: 1200 to 1600 UTC 25 June 2019
Forecast type: TEMPORARY: The following changes expected for less than half the time period
Visibility: 3 miles (5 km)
Ceiling: at least 12,000 feet AGL
Clouds: few clouds at 1000 feet AGL
few clouds at 1600 feet AGL
scattered clouds at 4000 feet AGL
Weather: TSRA  (rain associated with thunderstorm(s))